createdAt,value
2023-02-27T00:01:56.380Z,12.55
2023-02-27T00:05:02.783Z,13.48
2023-02-27T00:08:04.716Z,12.90
2023-02-27T00:11:06.624Z,13.13
2023-02-27T00:14:08.543Z,12.35
2023-02-27T00:17:10.434Z,12.18
2023-02-27T00:20:16.002Z,14.02
2023-02-27T00:23:17.898Z,14.73
2023-02-27T00:26:19.821Z,15.88
2023-02-27T00:29:21.742Z,14.93
2023-02-27T00:32:27.275Z,15.65
2023-02-27T00:35:31.633Z,13.95
2023-02-27T00:38:33.498Z,13.50
2023-02-27T00:41:37.328Z,14.45
2023-02-27T00:44:40.929Z,13.52
2023-02-27T00:47:43.059Z,11.68
2023-02-27T00:50:45.026Z,12.60
2023-02-27T00:53:47.729Z,13.27
2023-02-27T00:56:50.046Z,12.70
2023-02-27T00:59:52.039Z,13.00
2023-02-27T01:02:54.125Z,11.82
2023-02-27T01:05:56.020Z,12.20
2023-02-27T01:09:00.262Z,12.50
2023-02-27T01:12:02.483Z,11.00
2023-02-27T01:15:06.049Z,10.57
2023-02-27T01:18:07.875Z,11.38
2023-02-27T01:21:09.886Z,11.02
2023-02-27T01:24:13.825Z,10.98
2023-02-27T01:27:17.007Z,11.15
2023-02-27T01:33:20.820Z,11.25
2023-02-27T01:36:22.718Z,10.93
2023-02-27T01:39:26.123Z,12.48
2023-02-27T01:42:29.247Z,13.00
2023-02-27T01:45:40.020Z,14.68
2023-02-27T01:48:42.051Z,15.77
2023-02-27T01:51:56.824Z,16.52
2023-02-27T01:54:58.951Z,19.15
2023-02-27T01:58:01.164Z,16.57
2023-02-27T02:01:08.508Z,14.30
2023-02-27T02:04:29.830Z,15.75
2023-02-27T02:07:34.937Z,15.15
2023-02-27T02:10:38.839Z,15.57
2023-02-27T02:13:44.497Z,16.00
2023-02-27T02:17:19.237Z,16.13
2023-02-27T02:20:36.486Z,13.40
2023-02-27T02:23:47.034Z,13.27
2023-02-27T02:27:02.442Z,11.70
2023-02-27T02:30:26.218Z,12.30
2023-02-27T02:33:57.002Z,12.32
2023-02-27T02:37:04.788Z,13.52
2023-02-27T02:40:46.198Z,12.70
2023-02-27T02:44:14.222Z,11.38
2023-02-27T02:47:36.076Z,13.27
2023-02-27T02:51:10.767Z,13.75
2023-02-27T02:54:31.275Z,14.23
2023-02-27T02:58:07.058Z,14.63
2023-02-27T03:01:17.941Z,14.52
2023-02-27T03:04:37.488Z,14.60
2023-02-27T03:08:02.465Z,14.55
2023-02-27T03:11:08.463Z,15.70
2023-02-27T03:14:21.623Z,16.77
2023-02-27T03:18:02.056Z,18.73
2023-02-27T03:21:10.661Z,16.05
2023-02-27T03:24:19.843Z,14.68
2023-02-27T03:27:26.199Z,16.50
2023-02-27T03:30:49.323Z,16.13
2023-02-27T03:34:01.490Z,16.58
2023-02-27T03:37:30.578Z,16.27
2023-02-27T03:41:06.363Z,14.55
2023-02-27T03:44:31.693Z,15.13
2023-02-27T03:47:35.501Z,17.30
2023-02-27T03:50:38.096Z,18.00
2023-02-27T03:53:40.312Z,14.65
2023-02-27T03:56:55.963Z,13.43
2023-02-27T03:59:58.540Z,13.77
2023-02-27T04:03:01.434Z,15.15
2023-02-27T04:06:25.502Z,14.02
2023-02-27T04:09:49.946Z,15.38
2023-02-27T04:13:13.653Z,13.30
2023-02-27T04:16:30.363Z,18.08
2023-02-27T04:20:05.270Z,55.35
2023-02-27T04:23:35.760Z,18.92
2023-02-27T04:26:49.446Z,14.07
2023-02-27T04:30:05.261Z,20.80
2023-02-27T04:33:19.957Z,29.20
2023-02-27T04:36:32.694Z,20.83
2023-02-27T04:39:46.781Z,28.42
2023-02-27T04:42:55.017Z,37.15
2023-02-27T04:46:00.868Z,28.35
2023-02-27T04:49:13.303Z,25.63
2023-02-27T04:52:24.866Z,19.08
2023-02-27T04:55:35.949Z,16.75
2023-02-27T04:58:47.273Z,12.95
2023-02-27T05:02:12.898Z,12.00
2023-02-27T05:05:24.139Z,11.40
2023-02-27T05:08:32.927Z,10.05
2023-02-27T05:11:38.742Z,9.77
2023-02-27T05:14:48.818Z,9.88
2023-02-27T05:18:08.810Z,10.38
2023-02-27T05:21:25.531Z,9.32
2023-02-27T05:24:46.834Z,9.63
2023-02-27T05:27:58.773Z,9.85
2023-02-27T05:31:09.500Z,7.78
2023-02-27T05:34:22.645Z,7.82
2023-02-27T05:43:50.579Z,7.20
2023-02-27T05:46:57.679Z,7.28
2023-02-27T05:50:10.306Z,8.20
2023-02-27T05:53:19.123Z,12.50
2023-02-27T05:56:27.024Z,9.38
2023-02-27T05:59:35.528Z,8.57
2023-02-27T06:02:38.083Z,7.10
2023-02-27T06:05:42.542Z,6.85
2023-02-27T06:08:45.600Z,7.05
2023-02-27T06:11:48.112Z,8.25
2023-02-27T06:14:52.375Z,7.35
2023-02-27T06:17:54.713Z,7.10
2023-02-27T06:20:57.585Z,6.93
2023-02-27T06:24:02.347Z,7.47
2023-02-27T06:27:04.295Z,7.53
2023-02-27T06:30:07.486Z,7.72
2023-02-27T06:33:12.483Z,8.10
2023-02-27T06:36:14.395Z,9.13
2023-02-27T06:39:16.868Z,9.07
2023-02-27T06:42:19.203Z,8.57
2023-02-27T06:45:21.006Z,7.97
2023-02-27T06:48:22.972Z,8.48
2023-02-27T06:51:26.990Z,8.75
2023-02-27T06:54:28.892Z,8.35
2023-02-27T06:57:30.951Z,8.25
2023-02-27T07:00:32.845Z,7.07
2023-02-27T07:03:34.718Z,6.53
2023-02-27T07:07:33.871Z,7.80
2023-02-27T07:09:58.402Z,7.30
2023-02-27T07:13:03.577Z,7.63
2023-02-27T07:16:06.065Z,10.25
2023-02-27T07:19:11.129Z,8.55
2023-02-27T07:22:13.100Z,8.95
2023-02-27T07:25:15.078Z,11.32
2023-02-27T07:28:17.347Z,15.00
2023-02-27T07:31:22.076Z,14.63
2023-02-27T07:34:26.277Z,13.63
2023-02-27T07:37:28.325Z,10.18
2023-02-27T07:40:30.385Z,9.87
2023-02-27T07:43:34.310Z,9.90
2023-02-27T07:46:36.480Z,9.18
2023-02-27T07:49:38.574Z,9.18
2023-02-27T07:52:44.609Z,13.97
2023-02-27T07:55:46.937Z,9.02
2023-02-27T07:58:51.174Z,7.35
2023-02-27T08:01:53.046Z,7.43
2023-02-27T08:04:54.968Z,7.32
2023-02-27T08:07:56.950Z,7.47
2023-02-27T08:11:01.060Z,6.80
2023-02-27T08:14:03.365Z,7.53
2023-02-27T08:17:06.567Z,6.90
2023-02-27T08:20:11.471Z,7.40
2023-02-27T08:23:13.663Z,7.55
2023-02-27T08:26:15.603Z,7.90
2023-02-27T08:29:17.586Z,7.93
2023-02-27T08:32:19.532Z,6.15
2023-02-27T08:35:24.348Z,6.18
2023-02-27T08:38:26.541Z,6.60
2023-02-27T08:41:34.000Z,5.40
2023-02-27T08:44:35.856Z,5.25
2023-02-27T08:47:37.751Z,6.10
2023-02-27T08:50:39.889Z,6.00
2023-02-27T08:53:43.302Z,5.37
2023-02-27T08:56:46.581Z,5.20
2023-02-27T08:59:48.413Z,4.65
2023-02-27T09:02:51.059Z,4.97
2023-02-27T09:05:53.010Z,5.15
2023-02-27T09:09:00.611Z,5.65
2023-02-27T09:12:02.497Z,5.18
2023-02-27T09:15:05.746Z,5.30
2023-02-27T09:18:07.781Z,5.07
2023-02-27T09:21:09.882Z,5.27
2023-02-27T09:24:19.656Z,5.80
2023-02-27T09:27:23.901Z,6.13
2023-02-27T09:30:26.153Z,5.72
2023-02-27T09:33:29.296Z,5.07
2023-02-27T09:36:31.285Z,16.80
2023-02-27T09:39:33.220Z,6.55
2023-02-27T09:42:45.653Z,8.93
2023-02-27T09:45:53.407Z,8.40
2023-02-27T09:49:01.411Z,6.00
2023-02-27T09:52:03.456Z,6.10
2023-02-27T09:55:11.931Z,5.10
2023-02-27T09:58:35.695Z,4.82
2023-02-27T10:01:45.936Z,5.68
2023-02-27T10:04:52.627Z,7.32
2023-02-27T10:08:32.995Z,7.68
2023-02-27T10:11:56.743Z,8.07
2023-02-27T10:15:15.830Z,7.97
2023-02-27T10:18:31.017Z,7.47
2023-02-27T10:21:42.218Z,7.30
2023-02-27T10:25:03.675Z,6.65
2023-02-27T10:28:13.565Z,6.60
2023-02-27T10:31:21.152Z,6.00
2023-02-27T10:34:24.384Z,5.75
2023-02-27T10:40:30.476Z,6.13
2023-02-27T10:43:32.497Z,6.13
2023-02-27T10:46:38.356Z,6.40
2023-02-27T10:49:43.181Z,6.43
2023-02-27T10:53:22.680Z,6.55
2023-02-27T10:56:27.390Z,7.50
2023-02-27T10:59:36.949Z,6.07
2023-02-27T11:02:42.349Z,7.32
2023-02-27T11:05:53.682Z,5.40
2023-02-27T11:09:34.362Z,5.20
2023-02-27T11:12:36.872Z,4.95
2023-02-27T11:15:38.988Z,4.80
2023-02-27T11:18:43.631Z,5.93
2023-02-27T11:22:14.771Z,5.10
2023-02-27T11:25:18.825Z,7.80
2023-02-27T11:28:28.829Z,9.02
2023-02-27T11:31:32.799Z,6.20
2023-02-27T11:34:39.109Z,6.88
2023-02-27T11:37:42.034Z,11.77
2023-02-27T11:40:51.318Z,11.75
2023-02-27T11:43:53.527Z,7.13
2023-02-27T11:47:36.011Z,8.00
2023-02-27T11:51:02.701Z,7.80
2023-02-27T11:54:14.208Z,8.57
2023-02-27T11:57:28.216Z,8.30
2023-02-27T12:00:36.812Z,7.70
2023-02-27T12:03:44.693Z,7.90
2023-02-27T12:07:03.895Z,7.88
2023-02-27T12:10:16.241Z,7.70
2023-02-27T12:13:23.264Z,9.40
2023-02-27T12:16:32.964Z,13.57
2023-02-27T12:19:56.011Z,9.43
2023-02-27T12:23:02.421Z,7.18
2023-02-27T12:26:15.076Z,8.85
2023-02-27T12:29:39.127Z,8.45
2023-02-27T12:32:51.560Z,10.45
2023-02-27T12:36:00.102Z,7.75
2023-02-27T12:39:04.491Z,8.00
2023-02-27T12:42:20.431Z,8.30
2023-02-27T12:45:43.778Z,7.93
2023-02-27T12:52:03.514Z,6.80
2023-02-27T12:55:15.425Z,9.95
2023-02-27T12:58:24.852Z,7.63
2023-02-27T13:01:51.507Z,6.75
2023-02-27T13:05:19.076Z,7.22
2023-02-27T13:08:30.336Z,10.57
2023-02-27T13:11:56.945Z,7.78
2023-02-27T13:15:23.635Z,7.50
2023-02-27T13:18:51.286Z,7.47
2023-02-27T13:22:22.006Z,8.00
2023-02-27T13:25:24.880Z,8.35
2023-02-27T13:28:29.421Z,13.02
2023-02-27T13:31:48.096Z,9.88
2023-02-27T13:34:55.340Z,8.60
2023-02-27T13:38:02.445Z,7.90
2023-02-27T13:41:25.357Z,9.93
2023-02-27T13:44:29.378Z,12.25
2023-02-27T13:47:31.146Z,10.18
2023-02-27T13:50:33.046Z,9.68
2023-02-27T13:53:35.297Z,8.55
2023-02-27T13:56:37.272Z,10.68
2023-02-27T13:59:41.156Z,14.30
2023-02-27T14:02:58.265Z,11.80
2023-02-27T14:06:04.551Z,9.93
2023-02-27T14:09:15.090Z,9.02
2023-02-27T14:12:45.363Z,8.25
2023-02-27T14:15:53.175Z,8.13
2023-02-27T14:18:58.085Z,13.18
2023-02-27T14:22:12.109Z,8.30
2023-02-27T14:25:39.774Z,7.60
2023-02-27T14:28:56.577Z,8.68
2023-02-27T14:32:08.550Z,7.53
2023-02-27T14:35:15.652Z,9.43
2023-02-27T14:38:20.426Z,9.43
2023-02-27T14:41:34.962Z,9.93
2023-02-27T14:44:46.413Z,10.57
2023-02-27T14:47:48.809Z,10.98
2023-02-27T14:50:54.591Z,10.50
2023-02-27T14:54:04.229Z,10.27
2023-02-27T14:57:07.004Z,9.82
2023-02-27T15:00:32.345Z,10.98
2023-02-27T15:03:59.851Z,10.45
2023-02-27T15:07:02.025Z,10.15
2023-02-27T15:10:08.354Z,9.10
2023-02-27T15:13:24.198Z,9.30
2023-02-27T15:16:39.172Z,8.75
2023-02-27T15:19:50.101Z,8.52
2023-02-27T15:22:52.039Z,9.15
2023-02-27T15:25:59.367Z,8.63
2023-02-27T15:29:02.811Z,8.13
2023-02-27T15:32:06.192Z,8.57
2023-02-27T15:35:46.016Z,7.90
2023-02-27T15:39:22.645Z,8.18
2023-02-27T15:42:30.621Z,8.70
2023-02-27T15:45:36.155Z,7.95
2023-02-27T15:48:38.239Z,8.40
2023-02-27T15:51:40.158Z,8.83
2023-02-27T15:55:06.614Z,8.30
2023-02-27T15:58:28.944Z,9.07
2023-02-27T16:01:35.016Z,9.38
2023-02-27T16:04:37.089Z,13.05
2023-02-27T16:07:43.067Z,16.92
2023-02-27T16:10:46.792Z,24.27
2023-02-27T16:13:48.839Z,23.60
2023-02-27T16:16:56.654Z,26.07
2023-02-27T16:20:02.273Z,27.75
2023-02-27T16:23:15.769Z,31.23
2023-02-27T16:26:31.286Z,25.67
2023-02-27T16:29:45.839Z,24.73
2023-02-27T16:32:47.788Z,23.48
2023-02-27T16:35:53.522Z,26.05
2023-02-27T16:38:55.737Z,26.48
2023-02-27T16:42:02.170Z,28.40
2023-02-27T16:45:04.369Z,32.47
2023-02-27T16:48:07.601Z,32.15
2023-02-27T16:51:17.727Z,32.35
2023-02-27T16:54:20.236Z,33.28
2023-02-27T16:57:27.825Z,28.60
2023-02-27T17:00:29.945Z,28.02
2023-02-27T17:03:33.337Z,22.03
2023-02-27T17:06:36.331Z,24.92
2023-02-27T17:09:38.273Z,15.13
2023-02-27T17:12:41.479Z,31.48
2023-02-27T17:15:44.869Z,21.17
2023-02-27T17:18:46.800Z,20.00
2023-02-27T17:21:49.148Z,19.08
2023-02-27T17:24:51.051Z,17.45
2023-02-27T17:27:53.002Z,18.45
2023-02-27T17:30:55.025Z,19.33
2023-02-27T17:33:57.101Z,18.60
2023-02-27T17:36:59.053Z,17.73
2023-02-27T17:40:04.555Z,16.95
2023-02-27T17:43:06.530Z,16.33
2023-02-27T17:46:10.315Z,16.48
2023-02-27T17:49:13.453Z,15.18
2023-02-27T17:52:15.699Z,17.33
2023-02-27T17:55:18.023Z,16.60
2023-02-27T17:58:19.859Z,16.15
2023-02-27T18:01:26.339Z,16.20
2023-02-27T18:04:28.293Z,16.25
2023-02-27T18:07:30.683Z,16.17
2023-02-27T18:10:32.616Z,18.95
2023-02-27T18:13:34.501Z,15.98
2023-02-27T18:16:36.628Z,27.98
2023-02-27T18:19:50.104Z,19.47
2023-02-27T18:22:51.982Z,14.73
2023-02-27T18:25:55.764Z,13.00
2023-02-27T18:29:02.885Z,12.65
2023-02-27T18:32:10.142Z,12.15
2023-02-27T18:35:12.629Z,12.45
2023-02-27T18:38:14.577Z,12.15
2023-02-27T18:41:16.690Z,12.82
2023-02-27T18:44:18.607Z,13.73
2023-02-27T18:47:20.933Z,13.60
2023-02-27T18:50:23.179Z,14.13
2023-02-27T18:53:29.655Z,14.30
2023-02-27T18:56:32.996Z,12.85
2023-02-27T18:59:35.443Z,12.38
2023-02-27T19:02:41.597Z,13.20
2023-02-27T19:05:43.810Z,12.05
2023-02-27T19:08:50.142Z,11.60
2023-02-27T19:11:52.021Z,11.35
2023-02-27T19:14:54.722Z,11.75
2023-02-27T19:17:56.580Z,11.50
2023-02-27T19:21:04.038Z,11.35
2023-02-27T19:24:07.006Z,10.63
2023-02-27T19:30:13.762Z,10.85
2023-02-27T19:33:15.681Z,12.10
2023-02-27T19:36:20.728Z,12.93
2023-02-27T19:39:23.040Z,12.80
2023-02-27T19:42:26.026Z,13.70
2023-02-27T19:48:34.962Z,15.00
2023-02-27T19:51:37.003Z,14.18
2023-02-27T19:54:39.092Z,12.57
2023-02-27T19:57:41.071Z,16.37
2023-02-27T20:00:43.037Z,16.83
2023-02-27T20:03:45.002Z,13.25
2023-02-27T20:06:49.651Z,14.05
2023-02-27T20:09:51.565Z,12.02
2023-02-27T20:12:54.593Z,13.85
2023-02-27T20:18:58.428Z,11.70
2023-02-27T20:22:00.621Z,12.07
2023-02-27T20:25:02.602Z,12.98
2023-02-27T20:28:04.710Z,10.82
2023-02-27T20:31:12.772Z,10.80
2023-02-27T20:34:21.991Z,11.00
2023-02-27T20:37:23.900Z,10.80
2023-02-27T20:40:28.792Z,9.93
2023-02-27T20:43:30.902Z,9.73
2023-02-27T20:46:32.797Z,10.13
2023-02-27T20:49:39.586Z,9.40
2023-02-27T20:52:41.482Z,8.93
2023-02-27T20:55:57.166Z,9.27
2023-02-27T20:59:03.124Z,11.45
2023-02-27T21:02:10.116Z,11.32
2023-02-27T21:05:12.080Z,10.13
2023-02-27T21:08:16.968Z,10.43
2023-02-27T21:11:22.098Z,9.73
2023-02-27T21:14:26.956Z,9.38
2023-02-27T21:17:28.902Z,8.90
2023-02-27T21:20:31.428Z,9.15
2023-02-27T21:23:41.606Z,9.15
2023-02-27T21:26:44.962Z,8.98
2023-02-27T21:29:47.611Z,8.68
2023-02-27T21:32:51.763Z,8.85
2023-02-27T21:35:53.690Z,10.10
2023-02-27T21:39:03.396Z,8.90
2023-02-27T21:42:06.821Z,8.50
2023-02-27T21:45:09.499Z,9.00
2023-02-27T21:48:13.977Z,9.10
2023-02-27T21:51:17.146Z,8.43
2023-02-27T21:54:20.334Z,8.48
2023-02-27T21:57:22.235Z,8.97
2023-02-27T22:00:27.606Z,9.03
2023-02-27T22:03:34.441Z,8.50
2023-02-27T22:06:38.901Z,8.80
2023-02-27T22:09:40.765Z,8.85
2023-02-27T22:12:44.832Z,8.73
2023-02-27T22:15:46.741Z,8.40
2023-02-27T22:18:49.400Z,8.48
2023-02-27T22:21:51.674Z,7.55
2023-02-27T22:24:55.904Z,7.97
2023-02-27T22:27:58.424Z,8.02
2023-02-27T22:31:14.338Z,7.88
2023-02-27T22:34:18.772Z,7.50
2023-02-27T22:37:20.761Z,7.97
2023-02-27T22:40:24.801Z,7.43
2023-02-27T22:43:26.685Z,8.15
2023-02-27T22:46:32.112Z,8.88
2023-02-27T22:49:34.123Z,8.85
2023-02-27T22:52:37.149Z,7.97
2023-02-27T22:58:41.887Z,8.57
2023-02-27T23:04:48.570Z,8.13
2023-02-27T23:07:50.450Z,7.93
2023-02-27T23:10:52.292Z,7.70
2023-02-27T23:13:54.262Z,8.15
2023-02-27T23:16:56.309Z,8.32
2023-02-27T23:19:58.172Z,6.07
2023-02-27T23:23:00.043Z,8.13
2023-02-27T23:26:03.002Z,8.20
2023-02-27T23:32:07.037Z,8.80
2023-02-27T23:35:13.218Z,7.53
2023-02-27T23:38:15.072Z,7.72
2023-02-27T23:41:20.880Z,8.13
2023-02-27T23:44:22.798Z,8.25
2023-02-27T23:47:43.065Z,7.80
2023-02-27T23:50:45.087Z,7.93
2023-02-27T23:53:48.305Z,8.70
2023-02-27T23:56:54.518Z,8.50
2023-02-27T23:59:58.489Z,10.13
